createdAt,value
2023-02-15T00:00:42.615Z,23.38
2023-02-15T00:03:07.183Z,23.08
2023-02-15T00:05:34.423Z,24.35
2023-02-15T00:07:58.845Z,26.63
2023-02-15T00:10:24.555Z,26.85
2023-02-15T00:12:49.043Z,27.15
2023-02-15T00:15:14.156Z,29.95
2023-02-15T00:17:38.584Z,31.90
2023-02-15T00:20:03.053Z,30.63
2023-02-15T00:22:29.669Z,30.35
2023-02-15T00:24:54.092Z,30.33
2023-02-15T00:27:18.626Z,29.92
2023-02-15T00:29:43.222Z,28.73
2023-02-15T00:32:08.151Z,33.05
2023-02-15T00:34:32.554Z,32.67
2023-02-15T00:36:57.067Z,32.00
2023-02-15T00:39:23.055Z,31.33
2023-02-15T00:41:47.757Z,33.15
2023-02-15T00:44:12.356Z,34.17
2023-02-15T00:46:36.930Z,33.58
2023-02-15T00:49:01.456Z,34.08
2023-02-15T00:51:26.591Z,33.58
2023-02-15T00:53:51.122Z,34.10
2023-02-15T00:56:20.836Z,33.22
2023-02-15T00:58:45.474Z,34.22
2023-02-15T01:01:12.038Z,34.53
2023-02-15T01:03:37.001Z,33.05
2023-02-15T01:06:02.123Z,32.90
2023-02-15T01:08:27.591Z,33.83
2023-02-15T01:10:52.022Z,33.05
2023-02-15T01:13:19.241Z,30.42
2023-02-15T01:15:44.200Z,31.90
2023-02-15T01:18:08.751Z,32.25
2023-02-15T01:20:37.697Z,29.75
2023-02-15T01:23:02.147Z,32.00
2023-02-15T01:25:27.035Z,30.25
2023-02-15T01:27:53.160Z,31.27
2023-02-15T01:30:19.683Z,31.85
2023-02-15T01:32:44.779Z,29.45
2023-02-15T01:35:10.016Z,31.70
2023-02-15T01:37:34.906Z,32.78
2023-02-15T01:40:01.097Z,31.50
2023-02-15T01:42:26.222Z,33.20
2023-02-15T01:44:53.585Z,32.20
2023-02-15T01:47:24.332Z,31.40
2023-02-15T01:49:50.000Z,32.40
2023-02-15T01:52:19.772Z,33.20
2023-02-15T01:54:47.132Z,31.80
2023-02-15T01:57:15.940Z,34.40
2023-02-15T01:59:43.794Z,31.10
2023-02-15T02:02:11.877Z,32.08
2023-02-15T02:04:42.859Z,30.58
2023-02-15T02:07:08.425Z,31.98
2023-02-15T02:09:33.083Z,33.47
2023-02-15T02:11:57.640Z,30.67
2023-02-15T02:14:22.545Z,31.15
2023-02-15T02:16:54.996Z,32.17
2023-02-15T02:20:10.248Z,31.50
2023-02-15T02:23:04.369Z,30.92
2023-02-15T02:26:05.492Z,30.75
2023-02-15T02:29:00.193Z,30.67
2023-02-15T02:31:46.617Z,30.70
2023-02-15T02:34:19.119Z,31.17
2023-02-15T02:36:51.714Z,29.05
2023-02-15T02:39:24.840Z,32.15
2023-02-15T02:41:57.934Z,31.55
2023-02-15T02:44:27.637Z,32.17
2023-02-15T02:46:55.570Z,32.75
2023-02-15T02:49:33.657Z,31.88
2023-02-15T02:52:01.221Z,32.90
2023-02-15T02:54:25.621Z,34.30
2023-02-15T02:56:52.745Z,32.22
2023-02-15T02:59:21.375Z,31.83
2023-02-15T03:01:52.306Z,31.73
2023-02-15T03:04:20.065Z,32.47
2023-02-15T03:06:50.628Z,31.63
2023-02-15T03:09:22.654Z,31.70
2023-02-15T03:11:48.246Z,32.00
2023-02-15T03:14:16.636Z,32.63
2023-02-15T03:16:45.182Z,33.28
2023-02-15T03:19:13.914Z,32.67
2023-02-15T03:21:50.504Z,31.40
2023-02-15T03:24:17.524Z,33.67
2023-02-15T03:26:44.519Z,31.38
2023-02-15T03:29:10.805Z,34.10
2023-02-15T03:31:40.001Z,34.08
2023-02-15T03:34:08.839Z,34.20
2023-02-15T03:36:41.334Z,34.17
2023-02-15T03:39:13.676Z,34.00
2023-02-15T03:41:44.373Z,33.80
2023-02-15T03:44:15.402Z,34.50
2023-02-15T03:46:46.422Z,34.67
2023-02-15T03:49:16.659Z,33.47
2023-02-15T03:51:43.876Z,32.65
2023-02-15T03:54:12.914Z,32.55
2023-02-15T03:56:39.603Z,32.75
2023-02-15T03:59:21.763Z,31.30
2023-02-15T04:01:59.526Z,35.22
2023-02-15T04:04:27.174Z,35.35
2023-02-15T04:06:51.646Z,33.70
2023-02-15T04:09:35.276Z,35.97
2023-02-15T04:11:59.696Z,33.40
2023-02-15T04:14:41.466Z,33.88
2023-02-15T04:17:08.187Z,34.53
2023-02-15T04:19:50.169Z,34.92
2023-02-15T04:22:32.264Z,36.67
2023-02-15T04:25:13.769Z,38.05
2023-02-15T04:27:38.800Z,37.83
2023-02-15T04:30:03.193Z,37.30
2023-02-15T04:32:28.180Z,38.88
2023-02-15T04:34:52.652Z,37.67
2023-02-15T04:37:17.443Z,39.45
2023-02-15T04:39:41.798Z,37.63
2023-02-15T04:42:07.685Z,37.72
2023-02-15T04:44:32.058Z,39.22
2023-02-15T04:46:56.928Z,38.47
2023-02-15T04:49:21.326Z,38.50
2023-02-15T04:51:45.869Z,38.28
2023-02-15T04:54:10.309Z,38.90
2023-02-15T04:56:35.990Z,38.47
2023-02-15T04:59:01.712Z,38.67
2023-02-15T05:01:26.255Z,37.90
2023-02-15T05:03:50.671Z,37.35
2023-02-15T05:06:16.560Z,38.75
2023-02-15T05:08:41.062Z,37.15
2023-02-15T05:11:05.466Z,35.20
2023-02-15T05:13:29.927Z,36.30
2023-02-15T05:15:56.088Z,37.28
2023-02-15T05:18:21.500Z,36.40
2023-02-15T05:20:46.232Z,37.50
2023-02-15T05:23:10.656Z,38.83
2023-02-15T05:25:52.491Z,39.13
2023-02-15T05:28:23.058Z,38.00
2023-02-15T05:30:47.809Z,36.65
2023-02-15T05:33:13.742Z,36.63
2023-02-15T05:35:38.247Z,35.97
2023-02-15T05:38:02.832Z,37.45
2023-02-15T05:40:27.670Z,36.88
2023-02-15T05:42:51.983Z,32.58
2023-02-15T05:45:16.531Z,32.92
2023-02-15T05:47:40.931Z,35.92
2023-02-15T05:50:08.038Z,36.13
2023-02-15T05:52:32.362Z,35.58
2023-02-15T05:54:56.727Z,36.30
2023-02-15T05:57:21.057Z,36.60
2023-02-15T05:59:45.595Z,38.83
2023-02-15T06:02:10.075Z,36.92
2023-02-15T06:04:34.590Z,39.33
2023-02-15T06:07:00.597Z,38.85
2023-02-15T06:09:25.342Z,38.70
2023-02-15T06:11:49.669Z,40.08
2023-02-15T06:14:14.350Z,39.22
2023-02-15T06:16:38.703Z,39.72
2023-02-15T06:19:03.528Z,40.05
2023-02-15T06:21:28.015Z,41.00
2023-02-15T06:23:53.802Z,41.88
2023-02-15T06:26:18.236Z,43.83
2023-02-15T06:28:43.153Z,43.33
2023-02-15T06:31:07.619Z,42.30
2023-02-15T06:33:34.776Z,43.00
2023-02-15T06:35:59.242Z,44.45
2023-02-15T06:38:24.088Z,44.13
2023-02-15T06:40:49.947Z,47.15
2023-02-15T06:43:14.505Z,47.00
2023-02-15T06:45:38.862Z,46.13
2023-02-15T06:48:03.333Z,46.80
2023-02-15T06:50:27.794Z,47.00
2023-02-15T06:52:57.288Z,47.05
2023-02-15T06:55:21.718Z,47.78
2023-02-15T06:57:49.376Z,49.28
2023-02-15T07:00:16.502Z,48.23
2023-02-15T07:02:40.848Z,49.92
2023-02-15T07:05:06.275Z,50.28
2023-02-15T07:07:30.892Z,49.63
2023-02-15T07:09:55.275Z,49.53
2023-02-15T07:12:37.010Z,49.33
2023-02-15T07:15:07.146Z,47.80
2023-02-15T07:17:35.846Z,48.08
2023-02-15T07:20:00.763Z,45.53
2023-02-15T07:22:25.205Z,44.35
2023-02-15T07:24:50.224Z,39.92
2023-02-15T07:27:15.006Z,36.33
2023-02-15T07:29:40.295Z,34.45
2023-02-15T07:32:06.276Z,34.45
2023-02-15T07:34:30.914Z,35.15
2023-02-15T07:36:55.365Z,36.80
2023-02-15T07:39:20.034Z,41.42
2023-02-15T07:41:44.468Z,43.08
2023-02-15T07:44:14.331Z,42.08
2023-02-15T07:46:38.966Z,42.53
2023-02-15T07:49:04.902Z,41.28
2023-02-15T07:51:29.448Z,38.97
2023-02-15T07:53:54.212Z,36.33
2023-02-15T07:56:19.996Z,38.22
2023-02-15T07:58:53.490Z,40.83
2023-02-15T08:01:18.017Z,37.55
2023-02-15T08:03:42.711Z,38.40
2023-02-15T08:06:09.205Z,38.80
2023-02-15T08:08:35.736Z,39.97
2023-02-15T08:11:18.992Z,37.78
2023-02-15T08:13:54.658Z,38.85
2023-02-15T08:16:19.266Z,38.47
2023-02-15T08:18:43.598Z,40.80
2023-02-15T08:21:09.796Z,40.65
2023-02-15T08:23:34.210Z,37.22
2023-02-15T08:26:02.501Z,38.28
2023-02-15T08:28:26.968Z,39.05
2023-02-15T08:30:51.328Z,38.97
2023-02-15T08:33:15.928Z,37.83
2023-02-15T08:35:40.238Z,38.65
2023-02-15T08:38:06.004Z,35.90
2023-02-15T08:40:30.569Z,33.60
2023-02-15T08:42:55.021Z,33.58
2023-02-15T08:45:19.623Z,32.22
2023-02-15T08:47:44.114Z,29.50
2023-02-15T08:50:09.178Z,31.92
2023-02-15T08:52:33.514Z,30.73
2023-02-15T08:54:59.435Z,32.28
2023-02-15T08:57:23.825Z,32.70
2023-02-15T08:59:50.584Z,31.17
2023-02-15T09:02:15.251Z,33.30
2023-02-15T09:04:39.749Z,32.58
2023-02-15T09:07:05.501Z,33.33
2023-02-15T09:09:30.021Z,28.95
2023-02-15T09:11:59.410Z,28.42
2023-02-15T09:14:25.473Z,26.50
2023-02-15T09:16:52.704Z,25.25
2023-02-15T13:00:28.691Z,11.98
2023-02-15T13:04:44.811Z,12.52
2023-02-15T14:18:20.522Z,13.93
2023-02-15T14:36:56.074Z,14.07
2023-02-15T14:46:01.498Z,14.32
2023-02-15T15:16:01.044Z,12.52
2023-02-15T15:20:24.957Z,12.05
2023-02-15T15:38:31.300Z,11.63
2023-02-15T15:56:00.089Z,9.63
2023-02-15T16:31:47.525Z,9.18
2023-02-15T16:39:41.441Z,9.02
2023-02-15T16:47:23.936Z,26.70
2023-02-15T16:52:12.706Z,22.48
2023-02-15T16:56:46.965Z,15.15
2023-02-15T17:04:36.580Z,15.23
2023-02-15T17:05:08.116Z,16.13
2023-02-15T17:12:23.424Z,17.35
2023-02-15T17:15:44.469Z,14.63
2023-02-15T17:18:36.789Z,13.77
2023-02-15T17:21:11.660Z,13.73
2023-02-15T17:23:44.294Z,13.43
2023-02-15T17:26:17.454Z,13.82
2023-02-15T17:28:49.014Z,13.57
2023-02-15T17:31:18.374Z,16.02
2023-02-15T17:33:43.321Z,15.27
2023-02-15T17:36:14.876Z,17.30
2023-02-15T17:38:40.747Z,17.98
2023-02-15T17:41:05.667Z,19.38
2023-02-15T17:43:30.269Z,19.30
2023-02-15T17:45:56.498Z,16.98
2023-02-15T17:48:24.394Z,14.60
2023-02-15T17:50:49.191Z,14.15
2023-02-15T17:53:18.180Z,12.85
2023-02-15T17:55:43.164Z,13.98
2023-02-15T17:58:11.339Z,14.75
2023-02-15T18:00:56.274Z,14.75
2023-02-15T18:03:38.165Z,15.00
2023-02-15T18:06:20.379Z,17.48
2023-02-15T18:09:04.291Z,134.95
2023-02-15T18:11:38.574Z,43.20
2023-02-15T18:14:03.605Z,36.10
2023-02-15T18:16:33.429Z,33.50
2023-02-15T18:21:22.888Z,35.75
2023-02-15T18:23:49.455Z,36.75
2023-02-15T18:26:28.142Z,31.10
2023-02-15T18:28:53.752Z,46.20
2023-02-15T18:31:21.238Z,39.28
2023-02-15T18:33:49.259Z,30.75
2023-02-15T18:36:18.813Z,30.55
2023-02-15T18:38:43.940Z,29.95
2023-02-15T18:41:19.827Z,28.05
2023-02-15T18:43:44.652Z,27.10
2023-02-15T18:46:09.307Z,27.88
2023-02-15T18:48:33.820Z,27.05
2023-02-15T18:50:58.165Z,28.45
2023-02-15T18:53:23.183Z,41.80
2023-02-15T18:55:49.740Z,30.20
2023-02-15T18:58:19.704Z,27.40
2023-02-15T19:00:45.535Z,26.35
2023-02-15T19:03:17.559Z,29.33
2023-02-15T19:05:44.272Z,27.42
2023-02-15T19:08:17.969Z,29.13
2023-02-15T19:10:43.604Z,27.08
2023-02-15T19:13:11.840Z,26.92
2023-02-15T19:15:38.064Z,24.58
2023-02-15T19:18:03.698Z,35.13
2023-02-15T19:20:32.577Z,39.38
2023-02-15T19:23:03.474Z,31.98
2023-02-15T19:25:30.581Z,31.77
2023-02-15T19:27:55.761Z,32.00
2023-02-15T19:30:22.843Z,38.55
2023-02-15T19:32:49.057Z,31.38
2023-02-15T19:35:18.390Z,29.83
2023-02-15T19:37:45.443Z,24.65
2023-02-15T19:40:20.556Z,25.90
2023-02-15T19:42:45.119Z,28.10
2023-02-15T19:45:16.277Z,30.77
2023-02-15T19:47:44.409Z,29.20
2023-02-15T19:50:16.168Z,28.42
2023-02-15T19:52:41.350Z,30.25
2023-02-15T19:55:06.212Z,30.75
2023-02-15T19:57:31.627Z,29.05
2023-02-15T19:59:55.916Z,29.45
2023-02-15T20:02:20.857Z,29.27
2023-02-15T20:04:47.845Z,30.25
2023-02-15T20:07:23.394Z,29.88
2023-02-15T20:09:47.907Z,32.15
2023-02-15T20:12:21.838Z,33.00
2023-02-15T20:14:46.279Z,31.73
2023-02-15T20:17:10.721Z,34.60
2023-02-15T20:19:35.371Z,34.20
2023-02-15T20:22:01.161Z,33.50
2023-02-15T20:24:30.708Z,31.30
2023-02-15T20:26:55.320Z,31.65
2023-02-15T20:29:20.445Z,31.50
2023-02-15T20:31:47.207Z,31.83
2023-02-15T20:34:12.482Z,33.67
2023-02-15T20:36:37.178Z,32.47
2023-02-15T20:39:05.859Z,33.58
2023-02-15T20:41:37.614Z,32.45
2023-02-15T20:44:02.891Z,33.78
2023-02-15T20:46:27.801Z,32.47
2023-02-15T20:48:52.755Z,30.13
2023-02-15T20:51:19.247Z,32.03
2023-02-15T20:53:43.726Z,30.55
2023-02-15T20:56:13.423Z,32.17
2023-02-15T20:58:41.853Z,33.00
2023-02-15T21:01:11.459Z,29.02
2023-02-15T21:03:39.707Z,32.40
2023-02-15T21:06:04.234Z,31.20
2023-02-15T21:08:29.152Z,30.85
2023-02-15T21:10:55.503Z,32.13
2023-02-15T21:13:23.342Z,32.97
2023-02-15T21:15:49.512Z,33.95
2023-02-15T21:18:18.218Z,33.88
2023-02-15T21:20:47.316Z,33.90
2023-02-15T21:23:14.505Z,33.55
2023-02-15T21:25:39.272Z,32.10
2023-02-15T21:28:04.058Z,30.27
2023-02-15T21:30:29.109Z,31.05
2023-02-15T21:32:55.139Z,29.65
2023-02-15T21:35:20.365Z,30.13
2023-02-15T21:37:46.326Z,29.05
2023-02-15T21:40:18.675Z,29.92
2023-02-15T21:43:00.498Z,28.15
2023-02-15T21:45:42.416Z,28.92
2023-02-15T21:48:08.385Z,28.70
2023-02-15T21:50:50.562Z,27.65
2023-02-15T21:53:23.133Z,29.52
2023-02-15T21:55:47.544Z,28.73
2023-02-15T21:58:19.822Z,30.27
2023-02-15T22:00:45.254Z,32.10
2023-02-15T22:03:13.691Z,34.22
2023-02-15T22:05:38.900Z,33.13
2023-02-15T22:08:03.389Z,32.78
2023-02-15T22:10:30.660Z,31.83
2023-02-15T22:12:56.106Z,35.28
2023-02-15T22:15:22.526Z,37.88
2023-02-15T22:17:47.171Z,33.25
2023-02-15T22:20:17.187Z,34.13
2023-02-15T22:25:05.687Z,29.95
2023-02-15T22:27:40.516Z,27.05
2023-02-15T22:30:06.029Z,29.73
2023-02-15T22:32:30.447Z,27.27
2023-02-15T22:34:55.694Z,29.98
2023-02-15T22:37:21.775Z,27.30
2023-02-15T22:39:46.474Z,27.15
2023-02-15T22:42:22.151Z,28.15
2023-02-15T22:44:46.710Z,25.50
2023-02-15T22:47:21.135Z,26.80
2023-02-15T22:49:45.596Z,26.42
2023-02-15T22:52:13.584Z,26.70
2023-02-15T22:54:40.082Z,27.92
2023-02-15T22:57:04.515Z,27.73
2023-02-15T22:59:34.053Z,27.33
2023-02-15T23:01:59.340Z,28.10
2023-02-15T23:04:25.287Z,27.13
2023-02-15T23:06:50.249Z,26.67
2023-02-15T23:09:15.520Z,27.52
2023-02-15T23:11:42.784Z,28.75
2023-02-15T23:14:07.258Z,26.70
2023-02-15T23:16:32.112Z,27.15
2023-02-15T23:18:56.654Z,29.27
2023-02-15T23:21:23.514Z,29.60
2023-02-15T23:23:50.602Z,28.08
2023-02-15T23:26:18.365Z,27.30
2023-02-15T23:28:44.282Z,28.25
2023-02-15T23:31:17.610Z,29.02
2023-02-15T23:33:42.294Z,28.55
2023-02-15T23:36:07.136Z,31.02
2023-02-15T23:38:33.567Z,31.23
2023-02-15T23:41:17.279Z,29.48
2023-02-15T23:43:45.732Z,29.88
2023-02-15T23:46:13.159Z,27.65
2023-02-15T23:48:41.660Z,29.27
2023-02-15T23:51:07.062Z,27.55
2023-02-15T23:53:32.000Z,28.08
2023-02-15T23:55:56.642Z,25.52
2023-02-15T23:58:23.403Z,25.20
